Lake Clear, New York
Current Conditions -  °F | °C
As of 1:51 PM on Saturday 25 Oct 2014 (Local Time) from KSLK Reporting Station
Overcast Overcast  
Wind Chill: 52°   Ceiling: 2800
Heat Index: 52°   Visibility: 10mi
Dew Point: 44°   Wind: 9mph
Humidity: 74%   Direction: 230°SW
Pressure: 29.59"   Gusts: NA
Location:  44.37°N, 74.23°W
Report Text: KSLK 251751Z AUTO 23008KT 10SM BKN028 OVC035 11/07 A2959 RMK AO2 SLP029 T01110067 10117 20039 56040
Loading
Personal Weather Stations






























Interactive Weather Map
Tropical Storm Tracking
New forecast layout! Learn more

10-Day Weather Forecast

Advertisements
Track Severe Weather on mobile